sensor_id;sensor_type;location;lat;lon;timestamp;P1;durP1;ratioP1;P2;durP2;ratioP2
46222;SDS011;31943;51.410;7.564;2023-08-24T00:01:32;3.70;;;3.15;;
46222;SDS011;31943;51.410;7.564;2023-08-24T00:03:58;6.30;;;2.88;;
46222;SDS011;31943;51.410;7.564;2023-08-24T00:06:24;5.22;;;2.85;;
46222;SDS011;31943;51.410;7.564;2023-08-24T00:08:50;5.60;;;3.30;;
46222;SDS011;31943;51.410;7.564;2023-08-24T00:11:16;4.53;;;2.67;;
46222;SDS011;31943;51.410;7.564;2023-08-24T00:13:42;5.45;;;3.28;;
46222;SDS011;31943;51.410;7.564;2023-08-24T00:16:08;6.22;;;3.13;;
46222;SDS011;31943;51.410;7.564;2023-08-24T00:18:35;3.38;;;3.08;;
46222;SDS011;31943;51.410;7.564;2023-08-24T00:21:01;6.10;;;3.00;;
46222;SDS011;31943;51.410;7.564;2023-08-24T00:23:27;5.30;;;2.75;;
46222;SDS011;31943;51.410;7.564;2023-08-24T00:25:53;3.60;;;2.90;;
46222;SDS011;31943;51.410;7.564;2023-08-24T00:28:18;4.80;;;3.03;;
46222;SDS011;31943;51.410;7.564;2023-08-24T00:30:44;5.28;;;3.53;;
46222;SDS011;31943;51.410;7.564;2023-08-24T00:33:09;5.25;;;2.88;;
46222;SDS011;31943;51.410;7.564;2023-08-24T00:35:36;4.85;;;3.00;;
46222;SDS011;31943;51.410;7.564;2023-08-24T00:38:02;5.53;;;3.03;;
46222;SDS011;31943;51.410;7.564;2023-08-24T00:40:28;4.60;;;2.85;;
46222;SDS011;31943;51.410;7.564;2023-08-24T00:42:54;5.10;;;2.75;;
46222;SDS011;31943;51.410;7.564;2023-08-24T00:45:19;5.60;;;3.15;;
46222;SDS011;31943;51.410;7.564;2023-08-24T00:47:47;4.32;;;3.00;;
46222;SDS011;31943;51.410;7.564;2023-08-24T00:50:13;4.78;;;3.20;;
46222;SDS011;31943;51.410;7.564;2023-08-24T00:52:43;5.45;;;2.63;;
46222;SDS011;31943;51.410;7.564;2023-08-24T00:55:10;5.57;;;2.83;;
46222;SDS011;31943;51.410;7.564;2023-08-24T00:57:38;6.00;;;3.20;;
46222;SDS011;31943;51.410;7.564;2023-08-24T01:00:06;9.00;;;3.20;;
46222;SDS011;31943;51.410;7.564;2023-08-24T01:02:33;4.10;;;3.08;;
46222;SDS011;31943;51.410;7.564;2023-08-24T01:05:02;3.58;;;3.25;;
46222;SDS011;31943;51.410;7.564;2023-08-24T01:07:29;4.78;;;3.03;;
46222;SDS011;31943;51.410;7.564;2023-08-24T01:09:57;9.30;;;3.13;;
46222;SDS011;31943;51.410;7.564;2023-08-24T01:12:24;5.20;;;3.17;;
46222;SDS011;31943;51.410;7.564;2023-08-24T01:14:58;4.95;;;2.78;;
46222;SDS011;31943;51.410;7.564;2023-08-24T01:17:30;4.65;;;3.28;;
46222;SDS011;31943;51.410;7.564;2023-08-24T01:19:56;5.13;;;3.35;;
46222;SDS011;31943;51.410;7.564;2023-08-24T01:22:33;4.75;;;3.15;;
46222;SDS011;31943;51.410;7.564;2023-08-24T01:25:06;6.38;;;3.05;;
46222;SDS011;31943;51.410;7.564;2023-08-24T01:27:39;5.68;;;3.30;;
46222;SDS011;31943;51.410;7.564;2023-08-24T01:30:06;6.07;;;3.20;;
46222;SDS011;31943;51.410;7.564;2023-08-24T01:32:33;5.20;;;3.45;;
46222;SDS011;31943;51.410;7.564;2023-08-24T01:35:03;3.50;;;2.97;;
46222;SDS011;31943;51.410;7.564;2023-08-24T01:37:31;6.38;;;3.47;;
46222;SDS011;31943;51.410;7.564;2023-08-24T01:40:00;8.10;;;3.10;;
46222;SDS011;31943;51.410;7.564;2023-08-24T01:42:30;5.53;;;3.60;;
46222;SDS011;31943;51.410;7.564;2023-08-24T01:45:02;5.75;;;3.10;;
46222;SDS011;31943;51.410;7.564;2023-08-24T01:47:30;4.75;;;3.38;;
46222;SDS011;31943;51.410;7.564;2023-08-24T01:49:57;5.57;;;3.30;;
46222;SDS011;31943;51.410;7.564;2023-08-24T01:52:24;6.00;;;3.25;;
46222;SDS011;31943;51.410;7.564;2023-08-24T01:54:50;4.00;;;3.00;;
46222;SDS011;31943;51.410;7.564;2023-08-24T01:57:16;6.13;;;2.65;;
46222;SDS011;31943;51.410;7.564;2023-08-24T01:59:41;6.50;;;2.95;;
46222;SDS011;31943;51.410;7.564;2023-08-24T02:02:08;4.55;;;3.00;;
46222;SDS011;31943;51.410;7.564;2023-08-24T02:04:34;4.97;;;3.13;;
46222;SDS011;31943;51.410;7.564;2023-08-24T02:07:01;5.72;;;3.28;;
46222;SDS011;31943;51.410;7.564;2023-08-24T02:09:27;6.05;;;3.38;;
46222;SDS011;31943;51.410;7.564;2023-08-24T02:11:52;7.15;;;3.88;;
46222;SDS011;31943;51.410;7.564;2023-08-24T02:14:18;4.35;;;3.00;;
46222;SDS011;31943;51.410;7.564;2023-08-24T02:16:44;6.13;;;3.30;;
46222;SDS011;31943;51.410;7.564;2023-08-24T02:19:11;5.78;;;3.05;;
46222;SDS011;31943;51.410;7.564;2023-08-24T02:21:36;4.63;;;3.17;;
46222;SDS011;31943;51.410;7.564;2023-08-24T02:24:02;6.18;;;3.65;;
46222;SDS011;31943;51.410;7.564;2023-08-24T02:26:28;5.55;;;3.00;;
46222;SDS011;31943;51.410;7.564;2023-08-24T02:28:54;5.35;;;2.80;;
46222;SDS011;31943;51.410;7.564;2023-08-24T02:31:20;6.00;;;3.60;;
46222;SDS011;31943;51.410;7.564;2023-08-24T02:33:45;5.47;;;3.63;;
46222;SDS011;31943;51.410;7.564;2023-08-24T02:36:12;7.85;;;3.47;;
46222;SDS011;31943;51.410;7.564;2023-08-24T02:38:38;5.88;;;3.45;;
46222;SDS011;31943;51.410;7.564;2023-08-24T02:41:05;4.78;;;3.35;;
46222;SDS011;31943;51.410;7.564;2023-08-24T02:43:31;5.75;;;3.53;;
46222;SDS011;31943;51.410;7.564;2023-08-24T02:46:01;5.88;;;3.38;;
46222;SDS011;31943;51.410;7.564;2023-08-24T02:48:28;4.78;;;3.38;;
46222;SDS011;31943;51.410;7.564;2023-08-24T02:50:53;8.35;;;3.40;;
46222;SDS011;31943;51.410;7.564;2023-08-24T02:53:20;4.78;;;3.58;;
46222;SDS011;31943;51.410;7.564;2023-08-24T02:55:47;4.03;;;2.90;;
46222;SDS011;31943;51.410;7.564;2023-08-24T02:58:14;4.70;;;3.30;;
46222;SDS011;31943;51.410;7.564;2023-08-24T03:00:40;4.60;;;3.40;;
46222;SDS011;31943;51.410;7.564;2023-08-24T03:03:06;6.00;;;3.70;;
46222;SDS011;31943;51.410;7.564;2023-08-24T03:05:33;4.63;;;3.08;;
46222;SDS011;31943;51.410;7.564;2023-08-24T03:08:00;8.93;;;3.63;;
46222;SDS011;31943;51.410;7.564;2023-08-24T03:10:27;5.72;;;3.63;;
46222;SDS011;31943;51.410;7.564;2023-08-24T03:12:53;5.13;;;3.20;;
46222;SDS011;31943;51.410;7.564;2023-08-24T03:15:19;3.78;;;3.38;;
46222;SDS011;31943;51.410;7.564;2023-08-24T03:17:44;5.15;;;3.08;;
46222;SDS011;31943;51.410;7.564;2023-08-24T03:20:10;4.20;;;3.08;;
46222;SDS011;31943;51.410;7.564;2023-08-24T03:22:36;7.10;;;3.47;;
46222;SDS011;31943;51.410;7.564;2023-08-24T03:25:02;5.32;;;2.67;;
46222;SDS011;31943;51.410;7.564;2023-08-24T03:27:30;7.10;;;3.40;;
46222;SDS011;31943;51.410;7.564;2023-08-24T03:29:55;3.97;;;3.40;;
46222;SDS011;31943;51.410;7.564;2023-08-24T03:32:21;5.38;;;3.70;;
46222;SDS011;31943;51.410;7.564;2023-08-24T03:34:47;4.00;;;3.58;;
46222;SDS011;31943;51.410;7.564;2023-08-24T03:37:12;5.32;;;3.45;;
46222;SDS011;31943;51.410;7.564;2023-08-24T03:39:38;6.88;;;3.35;;
46222;SDS011;31943;51.410;7.564;2023-08-24T03:42:04;4.47;;;3.60;;
46222;SDS011;31943;51.410;7.564;2023-08-24T03:44:31;4.65;;;3.80;;
46222;SDS011;31943;51.410;7.564;2023-08-24T03:46:58;6.15;;;3.88;;
46222;SDS011;31943;51.410;7.564;2023-08-24T03:49:24;5.60;;;3.15;;
46222;SDS011;31943;51.410;7.564;2023-08-24T03:51:49;6.53;;;3.33;;
46222;SDS011;31943;51.410;7.564;2023-08-24T03:54:15;6.38;;;3.13;;
46222;SDS011;31943;51.410;7.564;2023-08-24T03:56:40;7.28;;;3.80;;
46222;SDS011;31943;51.410;7.564;2023-08-24T03:59:06;6.18;;;3.60;;
46222;SDS011;31943;51.410;7.564;2023-08-24T04:01:33;6.22;;;3.65;;
46222;SDS011;31943;51.410;7.564;2023-08-24T04:03:58;6.95;;;3.75;;
46222;SDS011;31943;51.410;7.564;2023-08-24T04:06:24;4.80;;;3.38;;
46222;SDS011;31943;51.410;7.564;2023-08-24T04:08:50;5.18;;;3.20;;
46222;SDS011;31943;51.410;7.564;2023-08-24T04:11:15;5.20;;;3.33;;
46222;SDS011;31943;51.410;7.564;2023-08-24T04:13:41;8.75;;;3.65;;
46222;SDS011;31943;51.410;7.564;2023-08-24T04:16:06;8.68;;;3.65;;
46222;SDS011;31943;51.410;7.564;2023-08-24T04:18:34;6.90;;;3.35;;
46222;SDS011;31943;51.410;7.564;2023-08-24T04:20:59;4.10;;;3.70;;
46222;SDS011;31943;51.410;7.564;2023-08-24T04:23:26;8.40;;;3.55;;
46222;SDS011;31943;51.410;7.564;2023-08-24T04:25:52;7.00;;;4.03;;
46222;SDS011;31943;51.410;7.564;2023-08-24T04:28:17;4.43;;;3.20;;
46222;SDS011;31943;51.410;7.564;2023-08-24T04:30:48;9.70;;;3.85;;
46222;SDS011;31943;51.410;7.564;2023-08-24T04:33:15;4.43;;;3.47;;
46222;SDS011;31943;51.410;7.564;2023-08-24T04:35:42;5.28;;;3.72;;
46222;SDS011;31943;51.410;7.564;2023-08-24T04:38:07;5.15;;;3.47;;
46222;SDS011;31943;51.410;7.564;2023-08-24T04:40:44;5.75;;;4.13;;
46222;SDS011;31943;51.410;7.564;2023-08-24T04:43:11;7.38;;;3.72;;
46222;SDS011;31943;51.410;7.564;2023-08-24T04:45:37;6.65;;;4.20;;
46222;SDS011;31943;51.410;7.564;2023-08-24T04:48:03;5.43;;;3.67;;
46222;SDS011;31943;51.410;7.564;2023-08-24T04:50:29;7.13;;;4.72;;
46222;SDS011;31943;51.410;7.564;2023-08-24T04:52:56;6.75;;;5.05;;
46222;SDS011;31943;51.410;7.564;2023-08-24T04:55:22;7.90;;;4.68;;
46222;SDS011;31943;51.410;7.564;2023-08-24T04:57:48;6.68;;;5.30;;
46222;SDS011;31943;51.410;7.564;2023-08-24T05:00:14;8.30;;;5.38;;
46222;SDS011;31943;51.410;7.564;2023-08-24T05:02:40;8.00;;;5.78;;
46222;SDS011;31943;51.410;7.564;2023-08-24T05:05:07;8.68;;;5.22;;
46222;SDS011;31943;51.410;7.564;2023-08-24T05:07:33;6.93;;;4.68;;
46222;SDS011;31943;51.410;7.564;2023-08-24T05:10:01;6.95;;;4.93;;
46222;SDS011;31943;51.410;7.564;2023-08-24T05:12:27;8.02;;;4.55;;
46222;SDS011;31943;51.410;7.564;2023-08-24T05:14:53;6.20;;;4.68;;
46222;SDS011;31943;51.410;7.564;2023-08-24T05:17:18;6.80;;;5.22;;
46222;SDS011;31943;51.410;7.564;2023-08-24T05:19:44;5.97;;;5.15;;
46222;SDS011;31943;51.410;7.564;2023-08-24T05:22:09;7.00;;;5.13;;
46222;SDS011;31943;51.410;7.564;2023-08-24T05:24:35;5.53;;;4.35;;
46222;SDS011;31943;51.410;7.564;2023-08-24T05:27:02;7.63;;;4.60;;
46222;SDS011;31943;51.410;7.564;2023-08-24T05:29:28;5.85;;;4.10;;
46222;SDS011;31943;51.410;7.564;2023-08-24T05:31:54;5.57;;;4.88;;
46222;SDS011;31943;51.410;7.564;2023-08-24T05:34:19;6.97;;;4.50;;
46222;SDS011;31943;51.410;7.564;2023-08-24T05:36:45;7.72;;;5.22;;
46222;SDS011;31943;51.410;7.564;2023-08-24T05:39:10;5.60;;;5.10;;
46222;SDS011;31943;51.410;7.564;2023-08-24T05:41:36;9.93;;;6.05;;
46222;SDS011;31943;51.410;7.564;2023-08-24T05:44:03;8.32;;;5.70;;
46222;SDS011;31943;51.410;7.564;2023-08-24T05:46:29;5.65;;;5.13;;
46222;SDS011;31943;51.410;7.564;2023-08-24T05:48:55;7.95;;;5.45;;
46222;SDS011;31943;51.410;7.564;2023-08-24T05:51:21;8.35;;;5.10;;
46222;SDS011;31943;51.410;7.564;2023-08-24T05:53:46;6.47;;;4.90;;
46222;SDS011;31943;51.410;7.564;2023-08-24T05:56:12;10.73;;;5.38;;
46222;SDS011;31943;51.410;7.564;2023-08-24T05:58:37;7.13;;;5.25;;
46222;SDS011;31943;51.410;7.564;2023-08-24T06:01:04;5.90;;;4.70;;
46222;SDS011;31943;51.410;7.564;2023-08-24T06:03:30;8.02;;;5.55;;
46222;SDS011;31943;51.410;7.564;2023-08-24T06:06:00;7.13;;;5.75;;
46222;SDS011;31943;51.410;7.564;2023-08-24T06:08:26;8.07;;;5.18;;
46222;SDS011;31943;51.410;7.564;2023-08-24T06:10:52;5.50;;;4.68;;
46222;SDS011;31943;51.410;7.564;2023-08-24T06:13:17;6.10;;;4.65;;
46222;SDS011;31943;51.410;7.564;2023-08-24T06:15:43;7.03;;;5.20;;
46222;SDS011;31943;51.410;7.564;2023-08-24T06:18:11;7.82;;;5.50;;
46222;SDS011;31943;51.410;7.564;2023-08-24T06:20:36;8.13;;;5.60;;
46222;SDS011;31943;51.410;7.564;2023-08-24T06:23:02;7.55;;;5.55;;
46222;SDS011;31943;51.410;7.564;2023-08-24T06:25:27;9.80;;;5.25;;
46222;SDS011;31943;51.410;7.564;2023-08-24T06:27:53;6.47;;;5.47;;
46222;SDS011;31943;51.410;7.564;2023-08-24T06:30:19;10.98;;;5.50;;
46222;SDS011;31943;51.410;7.564;2023-08-24T06:32:45;7.00;;;4.35;;
46222;SDS011;31943;51.410;7.564;2023-08-24T06:35:12;8.85;;;4.03;;
46222;SDS011;31943;51.410;7.564;2023-08-24T06:37:38;5.75;;;4.30;;
46222;SDS011;31943;51.410;7.564;2023-08-24T06:40:04;7.00;;;4.57;;
46222;SDS011;31943;51.410;7.564;2023-08-24T06:42:30;7.05;;;4.40;;
46222;SDS011;31943;51.410;7.564;2023-08-24T06:44:57;6.43;;;4.40;;
46222;SDS011;31943;51.410;7.564;2023-08-24T06:47:24;7.15;;;3.80;;
46222;SDS011;31943;51.410;7.564;2023-08-24T06:49:50;4.90;;;3.60;;
46222;SDS011;31943;51.410;7.564;2023-08-24T06:52:17;7.43;;;5.20;;
46222;SDS011;31943;51.410;7.564;2023-08-24T06:54:43;7.97;;;5.63;;
46222;SDS011;31943;51.410;7.564;2023-08-24T06:57:09;5.03;;;4.53;;
46222;SDS011;31943;51.410;7.564;2023-08-24T06:59:35;7.30;;;4.75;;
46222;SDS011;31943;51.410;7.564;2023-08-24T07:02:00;5.40;;;4.30;;
46222;SDS011;31943;51.410;7.564;2023-08-24T07:04:26;11.45;;;6.05;;
46222;SDS011;31943;51.410;7.564;2023-08-24T07:06:52;9.13;;;6.13;;
46222;SDS011;31943;51.410;7.564;2023-08-24T07:09:19;8.75;;;6.53;;
46222;SDS011;31943;51.410;7.564;2023-08-24T07:11:45;9.40;;;6.90;;
46222;SDS011;31943;51.410;7.564;2023-08-24T07:14:12;10.38;;;7.05;;
46222;SDS011;31943;51.410;7.564;2023-08-24T07:16:37;9.80;;;6.70;;
46222;SDS011;31943;51.410;7.564;2023-08-24T07:19:03;10.63;;;6.60;;
46222;SDS011;31943;51.410;7.564;2023-08-24T07:21:29;8.98;;;6.50;;
46222;SDS011;31943;51.410;7.564;2023-08-24T07:23:55;7.45;;;6.13;;
46222;SDS011;31943;51.410;7.564;2023-08-24T07:26:23;7.78;;;5.50;;
46222;SDS011;31943;51.410;7.564;2023-08-24T07:28:48;8.45;;;5.40;;
46222;SDS011;31943;51.410;7.564;2023-08-24T07:31:14;8.13;;;5.40;;
46222;SDS011;31943;51.410;7.564;2023-08-24T07:33:40;9.43;;;4.90;;
46222;SDS011;31943;51.410;7.564;2023-08-24T07:36:06;5.65;;;4.10;;
46222;SDS011;31943;51.410;7.564;2023-08-24T07:38:32;5.63;;;4.25;;
46222;SDS011;31943;51.410;7.564;2023-08-24T07:40:57;7.03;;;4.20;;
46222;SDS011;31943;51.410;7.564;2023-08-24T07:43:25;6.28;;;3.90;;
46222;SDS011;31943;51.410;7.564;2023-08-24T07:45:50;5.35;;;3.80;;
46222;SDS011;31943;51.410;7.564;2023-08-24T07:48:16;6.00;;;3.88;;
46222;SDS011;31943;51.410;7.564;2023-08-24T07:50:42;6.95;;;4.20;;
46222;SDS011;31943;51.410;7.564;2023-08-24T07:53:07;7.47;;;3.92;;
46222;SDS011;31943;51.410;7.564;2023-08-24T07:55:33;5.03;;;3.28;;
46222;SDS011;31943;51.410;7.564;2023-08-24T07:57:59;4.15;;;3.38;;
46222;SDS011;31943;51.410;7.564;2023-08-24T08:00:26;4.45;;;3.38;;
46222;SDS011;31943;51.410;7.564;2023-08-24T08:02:53;6.40;;;3.60;;
46222;SDS011;31943;51.410;7.564;2023-08-24T08:05:19;7.60;;;3.30;;
46222;SDS011;31943;51.410;7.564;2023-08-24T08:07:45;5.85;;;3.13;;
46222;SDS011;31943;51.410;7.564;2023-08-24T08:10:13;11.27;;;3.08;;
46222;SDS011;31943;51.410;7.564;2023-08-24T08:12:38;8.07;;;3.10;;
46222;SDS011;31943;51.410;7.564;2023-08-24T08:15:04;5.05;;;3.28;;
46222;SDS011;31943;51.410;7.564;2023-08-24T08:17:32;4.28;;;3.10;;
46222;SDS011;31943;51.410;7.564;2023-08-24T08:19:57;5.63;;;3.22;;
46222;SDS011;31943;51.410;7.564;2023-08-24T08:22:23;4.78;;;3.00;;
46222;SDS011;31943;51.410;7.564;2023-08-24T08:24:49;4.63;;;2.80;;
46222;SDS011;31943;51.410;7.564;2023-08-24T08:27:16;6.47;;;3.00;;
46222;SDS011;31943;51.410;7.564;2023-08-24T08:29:41;4.07;;;2.50;;
46222;SDS011;31943;51.410;7.564;2023-08-24T08:32:07;5.32;;;2.53;;
46222;SDS011;31943;51.410;7.564;2023-08-24T08:34:35;4.35;;;2.70;;
46222;SDS011;31943;51.410;7.564;2023-08-24T08:37:02;2.97;;;2.33;;
46222;SDS011;31943;51.410;7.564;2023-08-24T08:39:27;6.95;;;3.00;;
46222;SDS011;31943;51.410;7.564;2023-08-24T08:41:53;3.33;;;2.40;;
46222;SDS011;31943;51.410;7.564;2023-08-24T08:44:20;5.53;;;2.55;;
46222;SDS011;31943;51.410;7.564;2023-08-24T08:46:47;7.40;;;2.70;;
46222;SDS011;31943;51.410;7.564;2023-08-24T08:49:15;4.57;;;2.67;;
46222;SDS011;31943;51.410;7.564;2023-08-24T08:51:44;3.90;;;3.00;;
46222;SDS011;31943;51.410;7.564;2023-08-24T08:54:10;4.75;;;2.35;;
46222;SDS011;31943;51.410;7.564;2023-08-24T08:56:38;5.45;;;2.63;;
46222;SDS011;31943;51.410;7.564;2023-08-24T08:59:04;4.82;;;2.53;;
46222;SDS011;31943;51.410;7.564;2023-08-24T09:01:32;3.10;;;2.33;;
46222;SDS011;31943;51.410;7.564;2023-08-24T09:03:58;6.00;;;2.30;;
46222;SDS011;31943;51.410;7.564;2023-08-24T09:06:25;6.35;;;2.30;;
46222;SDS011;31943;51.410;7.564;2023-08-24T09:08:54;4.38;;;2.42;;
46222;SDS011;31943;51.410;7.564;2023-08-24T09:11:20;5.00;;;2.58;;
46222;SDS011;31943;51.410;7.564;2023-08-24T09:13:46;6.38;;;3.03;;
46222;SDS011;31943;51.410;7.564;2023-08-24T09:16:13;8.43;;;2.90;;
46222;SDS011;31943;51.410;7.564;2023-08-24T09:18:39;3.55;;;2.88;;
46222;SDS011;31943;51.410;7.564;2023-08-24T09:21:10;4.32;;;3.03;;
46222;SDS011;31943;51.410;7.564;2023-08-24T09:23:37;6.77;;;3.17;;
46222;SDS011;31943;51.410;7.564;2023-08-24T09:26:09;4.90;;;2.90;;
46222;SDS011;31943;51.410;7.564;2023-08-24T09:28:35;6.72;;;2.92;;
46222;SDS011;31943;51.410;7.564;2023-08-24T09:31:00;5.78;;;2.88;;
46222;SDS011;31943;51.410;7.564;2023-08-24T09:33:26;4.97;;;2.90;;
46222;SDS011;31943;51.410;7.564;2023-08-24T09:35:52;5.28;;;2.88;;
46222;SDS011;31943;51.410;7.564;2023-08-24T09:38:19;5.82;;;2.75;;
46222;SDS011;31943;51.410;7.564;2023-08-24T09:40:46;5.47;;;2.63;;
46222;SDS011;31943;51.410;7.564;2023-08-24T09:43:17;8.20;;;2.50;;
46222;SDS011;31943;51.410;7.564;2023-08-24T09:45:49;7.10;;;2.85;;
46222;SDS011;31943;51.410;7.564;2023-08-24T09:48:16;6.30;;;3.10;;
46222;SDS011;31943;51.410;7.564;2023-08-24T09:50:42;5.55;;;3.47;;
46222;SDS011;31943;51.410;7.564;2023-08-24T09:53:08;5.28;;;2.80;;
46222;SDS011;31943;51.410;7.564;2023-08-24T09:55:39;4.82;;;2.58;;
46222;SDS011;31943;51.410;7.564;2023-08-24T09:58:09;7.72;;;2.47;;
46222;SDS011;31943;51.410;7.564;2023-08-24T10:00:37;5.72;;;2.75;;
46222;SDS011;31943;51.410;7.564;2023-08-24T10:03:04;6.40;;;3.00;;
46222;SDS011;31943;51.410;7.564;2023-08-24T10:05:31;3.38;;;2.13;;
46222;SDS011;31943;51.410;7.564;2023-08-24T10:07:58;5.82;;;2.67;;
46222;SDS011;31943;51.410;7.564;2023-08-24T10:10:24;5.05;;;2.55;;
46222;SDS011;31943;51.410;7.564;2023-08-24T10:12:53;3.45;;;2.20;;
46222;SDS011;31943;51.410;7.564;2023-08-24T10:15:25;3.88;;;2.20;;
46222;SDS011;31943;51.410;7.564;2023-08-24T10:17:53;4.25;;;2.00;;
46222;SDS011;31943;51.410;7.564;2023-08-24T10:20:20;4.50;;;1.92;;
46222;SDS011;31943;51.410;7.564;2023-08-24T10:22:46;4.53;;;2.13;;
46222;SDS011;31943;51.410;7.564;2023-08-24T10:25:13;3.55;;;2.00;;
46222;SDS011;31943;51.410;7.564;2023-08-24T10:27:39;6.55;;;1.98;;
46222;SDS011;31943;51.410;7.564;2023-08-24T10:30:07;4.38;;;2.03;;
46222;SDS011;31943;51.410;7.564;2023-08-24T10:32:35;3.40;;;2.20;;
46222;SDS011;31943;51.410;7.564;2023-08-24T10:35:04;2.83;;;1.77;;
46222;SDS011;31943;51.410;7.564;2023-08-24T10:37:31;3.15;;;1.90;;
46222;SDS011;31943;51.410;7.564;2023-08-24T10:39:57;3.58;;;1.90;;
46222;SDS011;31943;51.410;7.564;2023-08-24T10:42:22;2.53;;;1.63;;
46222;SDS011;31943;51.410;7.564;2023-08-24T10:44:49;4.80;;;2.25;;
46222;SDS011;31943;51.410;7.564;2023-08-24T10:47:15;3.80;;;1.90;;
46222;SDS011;31943;51.410;7.564;2023-08-24T10:49:43;3.15;;;1.50;;
46222;SDS011;31943;51.410;7.564;2023-08-24T10:52:17;2.92;;;1.80;;
46222;SDS011;31943;51.410;7.564;2023-08-24T10:54:45;5.07;;;2.08;;
46222;SDS011;31943;51.410;7.564;2023-08-24T10:57:17;3.30;;;1.67;;
46222;SDS011;31943;51.410;7.564;2023-08-24T10:59:44;5.28;;;2.05;;
46222;SDS011;31943;51.410;7.564;2023-08-24T11:02:17;3.20;;;2.00;;
46222;SDS011;31943;51.410;7.564;2023-08-24T11:07:35;6.35;;;2.17;;
46222;SDS011;31943;51.410;7.564;2023-08-24T11:10:14;3.33;;;1.92;;
46222;SDS011;31943;51.410;7.564;2023-08-24T11:15:39;5.10;;;2.03;;
46222;SDS011;31943;51.410;7.564;2023-08-24T11:18:20;3.88;;;1.70;;
46222;SDS011;31943;51.410;7.564;2023-08-24T11:20:49;3.95;;;1.80;;
46222;SDS011;31943;51.410;7.564;2023-08-24T11:23:17;3.58;;;1.90;;
46222;SDS011;31943;51.410;7.564;2023-08-24T11:25:43;3.45;;;2.22;;
46222;SDS011;31943;51.410;7.564;2023-08-24T11:28:09;2.67;;;2.00;;
46222;SDS011;31943;51.410;7.564;2023-08-24T11:30:35;3.70;;;1.88;;
46222;SDS011;31943;51.410;7.564;2023-08-24T11:33:02;4.03;;;2.10;;
46222;SDS011;31943;51.410;7.564;2023-08-24T11:35:28;4.25;;;2.20;;
46222;SDS011;31943;51.410;7.564;2023-08-24T11:37:55;3.63;;;2.15;;
46222;SDS011;31943;51.410;7.564;2023-08-24T11:40:22;4.97;;;2.05;;
46222;SDS011;31943;51.410;7.564;2023-08-24T11:42:48;3.90;;;2.00;;
46222;SDS011;31943;51.410;7.564;2023-08-24T11:45:19;3.85;;;2.33;;
46222;SDS011;31943;51.410;7.564;2023-08-24T11:47:45;3.53;;;1.90;;
46222;SDS011;31943;51.410;7.564;2023-08-24T11:50:12;3.35;;;2.15;;
46222;SDS011;31943;51.410;7.564;2023-08-24T11:52:39;4.10;;;1.92;;
46222;SDS011;31943;51.410;7.564;2023-08-24T11:55:05;4.28;;;2.00;;
46222;SDS011;31943;51.410;7.564;2023-08-24T11:57:34;6.93;;;2.72;;
46222;SDS011;31943;51.410;7.564;2023-08-24T12:00:01;6.43;;;2.03;;
46222;SDS011;31943;51.410;7.564;2023-08-24T12:02:30;6.63;;;2.00;;
46222;SDS011;31943;51.410;7.564;2023-08-24T12:04:57;3.72;;;1.98;;
46222;SDS011;31943;51.410;7.564;2023-08-24T12:07:23;3.00;;;1.85;;
46222;SDS011;31943;51.410;7.564;2023-08-24T12:09:50;2.70;;;2.05;;
46222;SDS011;31943;51.410;7.564;2023-08-24T12:12:16;2.88;;;1.73;;
46222;SDS011;31943;51.410;7.564;2023-08-24T12:14:45;2.90;;;1.80;;
46222;SDS011;31943;51.410;7.564;2023-08-24T12:17:12;3.35;;;1.65;;
46222;SDS011;31943;51.410;7.564;2023-08-24T12:19:40;5.18;;;2.40;;
46222;SDS011;31943;51.410;7.564;2023-08-24T12:22:07;3.50;;;2.08;;
46222;SDS011;31943;51.410;7.564;2023-08-24T12:24:34;3.75;;;1.90;;
46222;SDS011;31943;51.410;7.564;2023-08-24T12:27:00;4.50;;;2.05;;
46222;SDS011;31943;51.410;7.564;2023-08-24T12:29:27;4.05;;;2.13;;
46222;SDS011;31943;51.410;7.564;2023-08-24T12:31:57;4.13;;;1.77;;
46222;SDS011;31943;51.410;7.564;2023-08-24T12:34:24;3.60;;;1.80;;
46222;SDS011;31943;51.410;7.564;2023-08-24T12:36:51;3.47;;;1.83;;
46222;SDS011;31943;51.410;7.564;2023-08-24T12:39:18;3.35;;;1.95;;
46222;SDS011;31943;51.410;7.564;2023-08-24T12:41:43;5.18;;;1.95;;
46222;SDS011;31943;51.410;7.564;2023-08-24T12:44:09;4.22;;;2.00;;
46222;SDS011;31943;51.410;7.564;2023-08-24T12:46:34;4.13;;;2.00;;
46222;SDS011;31943;51.410;7.564;2023-08-24T12:49:02;3.22;;;1.90;;
46222;SDS011;31943;51.410;7.564;2023-08-24T12:51:29;4.97;;;2.10;;
46222;SDS011;31943;51.410;7.564;2023-08-24T12:53:56;5.72;;;1.90;;
46222;SDS011;31943;51.410;7.564;2023-08-24T12:56:22;3.50;;;1.83;;
46222;SDS011;31943;51.410;7.564;2023-08-24T12:58:48;5.65;;;2.05;;
46222;SDS011;31943;51.410;7.564;2023-08-24T13:01:15;5.45;;;2.30;;
46222;SDS011;31943;51.410;7.564;2023-08-24T13:03:42;3.88;;;1.77;;
46222;SDS011;31943;51.410;7.564;2023-08-24T13:06:11;4.50;;;2.00;;
46222;SDS011;31943;51.410;7.564;2023-08-24T13:08:38;3.47;;;2.15;;
46222;SDS011;31943;51.410;7.564;2023-08-24T13:11:05;5.05;;;2.40;;
46222;SDS011;31943;51.410;7.564;2023-08-24T13:13:31;4.65;;;2.05;;
46222;SDS011;31943;51.410;7.564;2023-08-24T13:15:56;3.88;;;2.00;;
46222;SDS011;31943;51.410;7.564;2023-08-24T13:18:22;4.43;;;1.90;;
46222;SDS011;31943;51.410;7.564;2023-08-24T13:20:48;3.60;;;2.17;;
46222;SDS011;31943;51.410;7.564;2023-08-24T13:23:15;4.32;;;2.28;;
46222;SDS011;31943;51.410;7.564;2023-08-24T13:25:41;4.35;;;1.80;;
46222;SDS011;31943;51.410;7.564;2023-08-24T13:28:07;5.13;;;2.03;;
46222;SDS011;31943;51.410;7.564;2023-08-24T13:30:32;8.20;;;2.22;;
46222;SDS011;31943;51.410;7.564;2023-08-24T13:32:58;4.35;;;2.00;;
46222;SDS011;31943;51.410;7.564;2023-08-24T13:35:24;5.55;;;1.80;;
46222;SDS011;31943;51.410;7.564;2023-08-24T13:37:49;5.15;;;1.80;;
46222;SDS011;31943;51.410;7.564;2023-08-24T13:40:17;3.65;;;2.20;;
46222;SDS011;31943;51.410;7.564;2023-08-24T13:42:45;4.38;;;2.15;;
46222;SDS011;31943;51.410;7.564;2023-08-24T13:45:11;3.97;;;1.90;;
46222;SDS011;31943;51.410;7.564;2023-08-24T13:47:36;5.65;;;2.42;;
46222;SDS011;31943;51.410;7.564;2023-08-24T13:50:03;7.15;;;2.30;;
46222;SDS011;31943;51.410;7.564;2023-08-24T13:52:29;10.18;;;3.72;;
46222;SDS011;31943;51.410;7.564;2023-08-24T13:54:55;4.45;;;2.42;;
46222;SDS011;31943;51.410;7.564;2023-08-24T13:57:23;3.58;;;1.95;;
46222;SDS011;31943;51.410;7.564;2023-08-24T13:59:49;5.90;;;2.30;;
46222;SDS011;31943;51.410;7.564;2023-08-24T14:02:14;2.42;;;2.08;;
46222;SDS011;31943;51.410;7.564;2023-08-24T14:04:40;4.25;;;2.00;;
46222;SDS011;31943;51.410;7.564;2023-08-24T14:07:06;3.75;;;1.80;;
46222;SDS011;31943;51.410;7.564;2023-08-24T14:09:32;4.07;;;2.17;;
46222;SDS011;31943;51.410;7.564;2023-08-24T14:11:58;6.65;;;2.40;;
46222;SDS011;31943;51.410;7.564;2023-08-24T14:14:25;3.00;;;2.20;;
46222;SDS011;31943;51.410;7.564;2023-08-24T14:16:55;3.22;;;1.92;;
46222;SDS011;31943;51.410;7.564;2023-08-24T14:19:21;4.20;;;2.15;;
46222;SDS011;31943;51.410;7.564;2023-08-24T14:21:47;3.55;;;2.03;;
46222;SDS011;31943;51.410;7.564;2023-08-24T14:24:13;3.08;;;1.95;;
46222;SDS011;31943;51.410;7.564;2023-08-24T14:26:40;4.10;;;2.60;;
46222;SDS011;31943;51.410;7.564;2023-08-24T14:29:07;3.78;;;2.10;;
46222;SDS011;31943;51.410;7.564;2023-08-24T14:31:34;4.80;;;2.00;;
46222;SDS011;31943;51.410;7.564;2023-08-24T14:33:59;5.97;;;2.20;;
46222;SDS011;31943;51.410;7.564;2023-08-24T14:36:25;3.33;;;2.38;;
46222;SDS011;31943;51.410;7.564;2023-08-24T14:38:52;2.45;;;2.20;;
46222;SDS011;31943;51.410;7.564;2023-08-24T14:41:17;4.05;;;2.05;;
46222;SDS011;31943;51.410;7.564;2023-08-24T14:43:43;2.65;;;1.88;;
46222;SDS011;31943;51.410;7.564;2023-08-24T14:46:11;6.63;;;2.42;;
46222;SDS011;31943;51.410;7.564;2023-08-24T14:48:38;3.15;;;2.10;;
46222;SDS011;31943;51.410;7.564;2023-08-24T14:51:04;5.40;;;2.33;;